createdAt,value
2018-07-10T00:02:29.799Z,35.50
2018-07-10T00:07:41.501Z,34.60
2018-07-10T00:10:21.120Z,34.30
2018-07-10T00:12:49.383Z,34.30
2018-07-10T00:15:17.640Z,34.50
2018-07-10T00:17:45.855Z,34.60
2018-07-10T00:20:14.105Z,34.20
2018-07-10T00:22:42.385Z,33.80
2018-07-10T00:25:10.662Z,33.50
2018-07-10T00:27:38.874Z,33.60
2018-07-10T00:30:07.198Z,33.40
2018-07-10T00:32:35.494Z,33.60
2018-07-10T00:35:03.768Z,33.30
2018-07-10T00:37:32.046Z,33.50
2018-07-10T00:40:00.425Z,33.40
2018-07-10T00:42:28.691Z,33.20
2018-07-10T00:44:56.972Z,33.20
2018-07-10T00:47:25.219Z,33.20
2018-07-10T00:49:53.514Z,33.20
2018-07-10T00:52:29.455Z,33.60
2018-07-10T00:54:57.869Z,33.60
2018-07-10T00:57:26.126Z,33.60
2018-07-10T00:59:54.939Z,33.90
2018-07-10T01:02:23.244Z,33.80
2018-07-10T01:04:51.493Z,33.80
2018-07-10T01:07:19.815Z,34.00
2018-07-10T01:09:48.076Z,33.90
2018-07-10T01:12:16.347Z,34.20
2018-07-10T01:14:44.678Z,34.00
2018-07-10T01:17:12.905Z,33.40
2018-07-10T01:19:41.490Z,33.80
2018-07-10T01:22:09.759Z,33.80
2018-07-10T01:24:38.046Z,33.80
2018-07-10T01:27:06.471Z,33.90
2018-07-10T01:29:40.045Z,33.90
2018-07-10T01:32:08.419Z,34.00
2018-07-10T01:34:36.703Z,34.30
2018-07-10T01:37:05.314Z,34.80
2018-07-10T01:39:33.607Z,33.90
2018-07-10T01:42:01.918Z,34.10
2018-07-10T01:44:30.261Z,33.70
2018-07-10T01:46:58.555Z,34.40
2018-07-10T01:49:26.862Z,33.70
2018-07-10T01:51:55.137Z,34.00
2018-07-10T01:54:23.416Z,33.80
2018-07-10T01:56:51.707Z,34.40
2018-07-10T01:59:21.911Z,34.10
2018-07-10T02:01:50.302Z,34.10
2018-07-10T02:04:18.567Z,34.10
2018-07-10T02:06:46.783Z,34.20
2018-07-10T02:09:15.014Z,33.70
2018-07-10T02:11:43.304Z,34.20
2018-07-10T02:14:11.571Z,34.10
2018-07-10T02:16:39.818Z,34.30
2018-07-10T02:19:08.041Z,34.40
2018-07-10T02:21:36.317Z,34.40
2018-07-10T02:24:04.600Z,34.50
2018-07-10T02:29:00.941Z,34.60
2018-07-10T02:31:29.218Z,34.90
2018-07-10T02:33:57.585Z,34.50
2018-07-10T02:36:25.910Z,34.40
2018-07-10T02:38:56.600Z,34.30
2018-07-10T02:41:25.202Z,34.10
2018-07-10T02:43:56.589Z,34.20
2018-07-10T02:46:25.447Z,34.20
2018-07-10T02:48:55.085Z,34.30
2018-07-10T02:53:51.393Z,34.00
2018-07-10T02:56:21.757Z,34.10
2018-07-10T02:58:50.544Z,34.40
2018-07-10T03:01:19.446Z,34.20
2018-07-10T03:03:48.901Z,34.30
2018-07-10T03:06:17.277Z,34.30
2018-07-10T03:08:46.054Z,34.40
2018-07-10T03:11:14.515Z,34.30
2018-07-10T03:13:43.007Z,34.40
2018-07-10T03:16:11.706Z,34.00
2018-07-10T03:18:40.402Z,34.00
2018-07-10T03:21:08.725Z,34.40
2018-07-10T03:23:36.965Z,34.60
2018-07-10T03:26:05.238Z,34.40
2018-07-10T03:28:34.124Z,34.20
2018-07-10T03:31:02.501Z,34.40
2018-07-10T03:33:31.077Z,35.30
2018-07-10T03:35:59.402Z,35.00
2018-07-10T03:38:27.716Z,34.80
2018-07-10T03:40:56.011Z,34.60
2018-07-10T03:43:24.341Z,34.70
2018-07-10T03:45:52.664Z,35.00
2018-07-10T03:48:21.242Z,35.00
2018-07-10T03:50:49.716Z,35.20
2018-07-10T03:53:20.666Z,35.20
2018-07-10T03:55:48.946Z,35.20
2018-07-10T03:58:17.257Z,35.30
2018-07-10T04:00:45.536Z,35.50
2018-07-10T04:03:13.879Z,35.50
2018-07-10T04:05:42.142Z,35.80
2018-07-10T04:08:10.422Z,35.80
2018-07-10T04:10:38.707Z,35.80
2018-07-10T04:13:09.371Z,36.00
2018-07-10T04:15:38.016Z,35.90
2018-07-10T04:18:11.522Z,36.30
2018-07-10T04:21:45.959Z,36.10
2018-07-10T04:24:16.766Z,36.20
2018-07-10T04:27:52.333Z,36.30
2018-07-10T04:30:28.896Z,36.10
2018-07-10T04:32:58.719Z,36.00
2018-07-10T04:35:27.831Z,36.20
2018-07-10T04:37:56.285Z,36.70
2018-07-10T04:40:25.896Z,36.20
2018-07-10T04:42:57.358Z,36.40
2018-07-10T04:45:31.867Z,36.60
2018-07-10T04:48:00.886Z,36.60
2018-07-10T04:50:39.110Z,36.80
2018-07-10T04:53:20.146Z,36.80
2018-07-10T04:55:48.464Z,37.20
2018-07-10T04:58:19.041Z,36.70
2018-07-10T05:00:54.750Z,36.60
2018-07-10T05:03:22.974Z,36.80
2018-07-10T05:05:51.414Z,37.00
2018-07-10T05:08:21.381Z,36.80
2018-07-10T05:10:51.509Z,36.90
2018-07-10T05:13:19.817Z,37.20
2018-07-10T05:15:51.626Z,37.20
2018-07-10T05:18:19.974Z,37.40
2018-07-10T05:20:48.290Z,37.60
2018-07-10T05:23:16.871Z,37.50
2018-07-10T05:25:48.363Z,37.50
2018-07-10T05:28:16.687Z,37.60
2018-07-10T05:30:45.101Z,37.50
2018-07-10T05:33:15.156Z,37.70
2018-07-10T05:35:44.591Z,37.50
2018-07-10T05:38:12.967Z,37.50
2018-07-10T05:40:41.395Z,37.30
2018-07-10T05:43:11.780Z,37.60
2018-07-10T05:45:40.358Z,37.40
2018-07-10T05:48:08.734Z,37.40
2018-07-10T05:50:38.663Z,37.10
2018-07-10T05:53:09.179Z,37.20
2018-07-10T05:55:41.352Z,37.40
2018-07-10T05:58:09.654Z,36.70
2018-07-10T06:00:37.949Z,36.70
2018-07-10T06:03:06.185Z,36.80
2018-07-10T06:05:34.713Z,36.70
2018-07-10T06:08:03.013Z,36.90
2018-07-10T06:10:31.296Z,37.00
2018-07-10T06:15:28.789Z,36.70
2018-07-10T06:17:57.129Z,37.20
2018-07-10T06:20:25.953Z,37.10
2018-07-10T06:22:56.188Z,37.50
2018-07-10T06:25:24.628Z,37.90
2018-07-10T06:27:57.916Z,38.20
2018-07-10T06:30:26.378Z,38.80
2018-07-10T06:33:02.716Z,38.60
2018-07-10T06:35:40.384Z,38.60
2018-07-10T06:38:12.475Z,38.30
2018-07-10T06:40:47.151Z,38.60
2018-07-10T06:43:25.756Z,38.20
2018-07-10T06:45:54.203Z,38.50
2018-07-10T06:48:22.939Z,38.00
2018-07-10T06:50:51.339Z,38.20
2018-07-10T06:53:22.402Z,38.00
2018-07-10T06:55:59.046Z,38.30
2018-07-10T06:58:32.522Z,37.80
2018-07-10T07:01:00.822Z,37.40
2018-07-10T07:03:29.129Z,37.90
2018-07-10T07:05:57.542Z,37.50
2018-07-10T07:08:25.888Z,37.00
2018-07-10T07:10:54.145Z,37.20
2018-07-10T07:13:22.494Z,36.40
2018-07-10T07:15:50.817Z,36.00
2018-07-10T07:18:19.420Z,36.60
2018-07-10T07:20:47.683Z,36.70
2018-07-10T07:23:15.964Z,37.10
2018-07-10T07:25:44.800Z,37.60
2018-07-10T07:28:13.097Z,37.80
2018-07-10T07:30:41.381Z,37.70
2018-07-10T07:33:09.884Z,37.70
2018-07-10T07:35:38.260Z,37.90
2018-07-10T07:38:06.549Z,38.20
2018-07-10T07:40:34.870Z,38.10
2018-07-10T07:43:03.208Z,38.30
2018-07-10T07:45:31.525Z,37.70
2018-07-10T07:47:59.862Z,37.50
2018-07-10T07:50:28.152Z,38.00
2018-07-10T07:52:56.642Z,37.80
2018-07-10T07:55:24.960Z,37.80
2018-07-10T07:57:53.378Z,37.80
2018-07-10T08:00:22.020Z,37.70
2018-07-10T08:02:50.334Z,37.20
2018-07-10T08:05:18.757Z,37.50
2018-07-10T08:07:47.055Z,37.30
2018-07-10T08:10:15.408Z,36.70
2018-07-10T08:12:43.678Z,36.10
2018-07-10T08:15:12.039Z,36.50
2018-07-10T08:17:40.282Z,35.60
2018-07-10T08:20:08.665Z,35.80
2018-07-10T08:22:37.016Z,35.20
2018-07-10T08:25:05.906Z,35.80
2018-07-10T08:27:36.920Z,35.40
2018-07-10T08:30:05.527Z,34.90
2018-07-10T08:32:33.924Z,34.90
2018-07-10T08:37:30.326Z,34.20
2018-07-10T08:39:58.687Z,34.10
2018-07-10T08:42:27.106Z,34.60
2018-07-10T08:44:55.480Z,34.00
2018-07-10T08:47:23.824Z,34.00
2018-07-10T08:49:52.159Z,33.90
2018-07-10T08:52:20.498Z,34.30
2018-07-10T08:54:48.930Z,34.30
2018-07-10T08:57:17.379Z,34.70
2018-07-10T08:59:45.694Z,33.80
2018-07-10T09:02:14.003Z,34.10
2018-07-10T09:04:42.335Z,34.90
2018-07-10T09:07:10.622Z,33.90
2018-07-10T09:09:38.995Z,34.00
2018-07-10T09:12:07.364Z,34.50
2018-07-10T09:14:35.670Z,34.80
2018-07-10T09:17:04.254Z,34.60
2018-07-10T09:19:32.536Z,34.10
2018-07-10T09:22:06.685Z,34.50
2018-07-10T09:24:37.119Z,34.00
2018-07-10T09:27:08.166Z,33.60
2018-07-10T09:32:04.455Z,35.40
2018-07-10T09:34:32.758Z,34.80
2018-07-10T09:37:01.653Z,34.60
2018-07-10T09:39:30.028Z,35.00
2018-07-10T09:41:59.098Z,34.90
2018-07-10T09:44:27.463Z,35.30
2018-07-10T09:46:55.784Z,35.30
2018-07-10T09:49:24.079Z,35.40
2018-07-10T09:51:52.327Z,36.00
2018-07-10T09:54:20.651Z,35.20
2018-07-10T09:56:48.925Z,35.90
2018-07-10T09:59:17.259Z,35.10
2018-07-10T10:01:45.771Z,35.00
2018-07-10T10:04:14.797Z,34.60
2018-07-10T10:06:43.166Z,33.00
2018-07-10T10:09:11.465Z,32.80
2018-07-10T10:11:39.741Z,33.30
2018-07-10T10:14:08.602Z,32.40
2018-07-10T10:16:36.858Z,32.00
2018-07-10T10:19:05.194Z,31.40
2018-07-10T10:21:33.488Z,30.80
2018-07-10T10:24:01.874Z,30.10
2018-07-10T10:26:30.224Z,28.60
2018-07-10T10:28:58.491Z,27.90
2018-07-10T10:31:26.798Z,27.30
2018-07-10T10:33:55.107Z,27.10
2018-07-10T10:36:23.409Z,26.70
2018-07-10T10:38:51.726Z,26.50
2018-07-10T10:41:20.027Z,26.40
2018-07-10T10:43:48.994Z,26.10
2018-07-10T10:46:20.680Z,26.20
2018-07-10T10:48:49.062Z,26.40
2018-07-10T10:51:19.795Z,25.40
2018-07-10T10:53:48.155Z,26.00
2018-07-10T10:56:16.450Z,25.60
2018-07-10T11:01:13.046Z,26.40
2018-07-10T11:03:41.368Z,26.30
2018-07-10T11:06:09.843Z,26.60
2018-07-10T11:08:38.144Z,27.00
2018-07-10T11:11:06.412Z,27.00
2018-07-10T11:13:34.797Z,26.80
2018-07-10T11:16:03.059Z,26.40
2018-07-10T11:18:35.655Z,27.20
2018-07-10T11:21:09.860Z,27.50
2018-07-10T11:23:50.979Z,27.70
2018-07-10T11:26:40.314Z,27.60
2018-07-10T11:29:08.879Z,27.40
2018-07-10T11:31:37.723Z,27.70
2018-07-10T11:34:06.531Z,28.00
2018-07-10T11:36:35.152Z,27.90
2018-07-10T11:39:09.131Z,27.50
2018-07-10T11:41:41.526Z,27.40
2018-07-10T11:44:09.805Z,27.50
2018-07-10T11:46:39.102Z,27.80
2018-07-10T11:49:07.596Z,28.00
2018-07-10T11:51:35.980Z,27.90
2018-07-10T11:54:04.773Z,28.30
2018-07-10T11:56:33.111Z,27.90
2018-07-10T11:59:02.132Z,27.50
2018-07-10T12:01:31.425Z,27.00
2018-07-10T12:04:00.322Z,27.80
2018-07-10T12:06:29.013Z,28.60
2018-07-10T12:08:59.423Z,28.30
2018-07-10T12:11:31.448Z,27.60
2018-07-10T12:13:59.738Z,27.40
2018-07-10T12:16:28.744Z,27.70
2018-07-10T12:18:57.186Z,28.20
2018-07-10T12:21:25.631Z,27.80
2018-07-10T12:23:53.991Z,28.20
2018-07-10T12:26:22.907Z,27.80
2018-07-10T12:28:51.392Z,28.10
2018-07-10T12:31:19.667Z,28.50
2018-07-10T12:33:47.950Z,28.70
2018-07-10T12:36:16.249Z,28.30
2018-07-10T12:38:44.466Z,28.40
2018-07-10T12:41:12.825Z,28.80
2018-07-10T12:43:41.050Z,29.00
2018-07-10T12:46:09.328Z,29.40
2018-07-10T12:48:37.602Z,29.50
2018-07-10T12:51:06.876Z,29.50
2018-07-10T12:53:35.173Z,29.60
2018-07-10T12:56:03.508Z,29.50
2018-07-10T12:58:32.611Z,29.80
2018-07-10T13:01:00.878Z,29.60
2018-07-10T13:03:29.181Z,29.20
2018-07-10T13:05:58.396Z,29.00
2018-07-10T13:08:26.707Z,29.30
2018-07-10T13:10:55.083Z,28.90
2018-07-10T13:13:23.425Z,29.20
2018-07-10T13:15:51.835Z,29.20
2018-07-10T13:18:22.693Z,28.90
2018-07-10T13:20:51.731Z,28.70
2018-07-10T13:23:20.248Z,30.60
2018-07-10T13:25:48.631Z,32.40
2018-07-10T13:28:16.985Z,33.30
2018-07-10T13:30:45.750Z,34.00
2018-07-10T13:33:14.548Z,36.50
2018-07-10T13:35:42.988Z,38.00
2018-07-10T13:38:12.264Z,39.80
2018-07-10T13:40:40.928Z,41.70
2018-07-10T13:43:09.382Z,42.90
2018-07-10T13:45:37.722Z,43.10
2018-07-10T13:48:06.342Z,44.10
2018-07-10T13:50:34.891Z,44.30
2018-07-10T13:53:04.018Z,45.60
2018-07-10T13:55:33.009Z,46.90
2018-07-10T13:58:34.829Z,48.30
2018-07-10T14:01:06.530Z,51.60
2018-07-10T14:03:35.472Z,54.60
2018-07-10T14:06:04.259Z,54.70
2018-07-10T14:08:32.667Z,56.50
2018-07-10T14:11:01.256Z,58.40
2018-07-10T14:13:29.509Z,58.60
2018-07-10T14:15:57.958Z,60.50
2018-07-10T14:18:27.410Z,58.30
2018-07-10T14:21:00.034Z,57.00
2018-07-10T14:23:28.340Z,58.60
2018-07-10T14:28:24.773Z,55.30
2018-07-10T14:30:52.977Z,54.60
2018-07-10T14:33:22.463Z,52.50
2018-07-10T14:35:50.751Z,52.30
2018-07-10T14:38:22.552Z,50.60
2018-07-10T14:40:51.494Z,50.60
2018-07-10T14:43:23.300Z,49.90
2018-07-10T14:45:52.778Z,50.10
2018-07-10T14:48:22.425Z,50.20
2018-07-10T14:50:52.831Z,49.30
2018-07-10T14:53:21.079Z,48.20
2018-07-10T14:58:17.410Z,46.10
2018-07-10T15:00:45.819Z,46.30
2018-07-10T15:03:14.114Z,46.20
2018-07-10T15:05:43.102Z,45.70
2018-07-10T15:08:11.383Z,45.60
2018-07-10T15:10:39.686Z,42.70
2018-07-10T15:13:08.960Z,42.70
2018-07-10T15:15:37.274Z,43.50
2018-07-10T15:18:10.780Z,43.50
2018-07-10T15:20:39.190Z,44.40
2018-07-10T15:23:07.822Z,43.20
2018-07-10T15:25:36.204Z,43.10
2018-07-10T15:28:04.443Z,42.90
2018-07-10T15:30:33.138Z,43.50
2018-07-10T15:33:01.496Z,43.50
2018-07-10T15:35:29.879Z,43.40
2018-07-10T15:37:58.305Z,43.80
2018-07-10T15:40:26.741Z,43.40
2018-07-10T15:42:55.079Z,43.40
2018-07-10T15:45:23.493Z,43.10
2018-07-10T15:50:19.823Z,42.10
2018-07-10T15:52:48.222Z,42.40
2018-07-10T15:55:16.662Z,42.70
2018-07-10T15:57:44.957Z,43.00
2018-07-10T16:00:13.359Z,43.60
2018-07-10T16:02:41.680Z,43.00
2018-07-10T16:05:10.031Z,43.30
2018-07-10T16:07:38.374Z,42.90
2018-07-10T16:10:06.900Z,43.50
2018-07-10T16:12:36.375Z,43.50
2018-07-10T16:15:04.746Z,44.10
2018-07-10T16:17:33.146Z,43.90
2018-07-10T16:20:04.441Z,44.80
2018-07-10T16:22:35.539Z,44.00
2018-07-10T16:25:11.933Z,44.00
2018-07-10T16:27:44.903Z,44.00
2018-07-10T16:30:20.406Z,44.10
2018-07-10T16:32:48.732Z,43.80
2018-07-10T16:35:17.282Z,44.70
2018-07-10T16:37:45.702Z,43.80
2018-07-10T16:40:15.088Z,43.90
2018-07-10T16:42:49.666Z,44.10
2018-07-10T16:45:33.269Z,44.20
2018-07-10T16:48:13.623Z,43.90
2018-07-10T16:50:45.478Z,43.40
2018-07-10T16:53:14.964Z,43.90
2018-07-10T16:55:43.400Z,43.50
2018-07-10T16:58:11.738Z,42.90
2018-07-10T17:00:40.112Z,43.00
2018-07-10T17:03:08.538Z,41.60
2018-07-10T17:05:36.772Z,40.00
2018-07-10T17:08:05.109Z,39.30
2018-07-10T17:10:33.412Z,39.60
2018-07-10T17:13:01.746Z,39.30
2018-07-10T17:15:30.081Z,38.30
2018-07-10T17:17:58.440Z,38.30
2018-07-10T17:20:26.794Z,37.50
2018-07-10T17:22:55.140Z,38.20
2018-07-10T17:25:23.495Z,38.50
2018-07-10T17:27:52.099Z,38.60
2018-07-10T17:30:20.500Z,38.50
2018-07-10T17:32:48.798Z,38.80
2018-07-10T17:35:17.096Z,39.00
2018-07-10T17:37:49.466Z,38.70
2018-07-10T17:40:17.879Z,38.60
2018-07-10T17:42:47.708Z,39.30
2018-07-10T17:45:21.069Z,39.50
2018-07-10T17:47:49.967Z,40.00
2018-07-10T17:50:18.227Z,39.10
2018-07-10T17:52:46.617Z,39.40
2018-07-10T17:55:15.216Z,39.10
2018-07-10T17:57:44.272Z,38.90
2018-07-10T18:00:12.570Z,39.00
2018-07-10T18:02:40.922Z,39.50
2018-07-10T18:05:09.409Z,39.40
2018-07-10T18:07:37.690Z,39.40
2018-07-10T18:10:06.009Z,39.20
2018-07-10T18:12:34.365Z,39.40
2018-07-10T18:15:02.742Z,38.80
2018-07-10T18:17:31.019Z,39.00
2018-07-10T18:19:59.452Z,39.20
2018-07-10T18:22:27.792Z,38.70
2018-07-10T18:24:56.070Z,38.20
2018-07-10T18:27:24.457Z,38.60
2018-07-10T18:29:52.794Z,38.70
2018-07-10T18:32:21.063Z,38.10
2018-07-10T18:34:49.394Z,38.30
2018-07-10T18:37:17.718Z,38.60
2018-07-10T18:39:46.071Z,38.70
2018-07-10T18:42:14.473Z,38.40
2018-07-10T18:44:42.747Z,38.80
2018-07-10T18:47:11.053Z,38.70
2018-07-10T18:49:39.327Z,39.00
2018-07-10T18:52:07.629Z,39.10
2018-07-10T18:54:37.668Z,39.00
2018-07-10T18:57:33.603Z,39.00
2018-07-10T19:00:04.565Z,39.20
2018-07-10T19:02:43.888Z,39.60
2018-07-10T19:05:12.351Z,39.80
2018-07-10T19:07:42.417Z,39.80
2018-07-10T19:10:11.059Z,40.20
2018-07-10T19:12:41.158Z,40.30
2018-07-10T19:15:09.468Z,40.30
2018-07-10T19:20:09.828Z,40.50
2018-07-10T19:22:48.160Z,40.40
2018-07-10T19:25:16.954Z,40.70
2018-07-10T19:27:48.230Z,40.50
2018-07-10T19:30:16.608Z,40.80
2018-07-10T19:32:44.917Z,41.00
2018-07-10T19:35:13.266Z,41.10
2018-07-10T19:40:10.266Z,41.50
2018-07-10T19:42:40.957Z,41.50
2018-07-10T19:45:10.090Z,41.50
2018-07-10T19:47:38.506Z,41.30
2018-07-10T19:50:14.801Z,40.50
2018-07-10T19:52:47.655Z,39.40
2018-07-10T19:55:16.361Z,40.80
2018-07-10T19:58:36.138Z,41.50
2018-07-10T20:01:13.638Z,40.20
2018-07-10T20:03:49.949Z,40.00
2018-07-10T20:06:25.687Z,39.70
2018-07-10T20:08:57.462Z,36.20
2018-07-10T20:11:32.851Z,36.70
2018-07-10T20:14:01.447Z,36.40
2018-07-10T20:16:39.296Z,37.10
2018-07-10T20:19:13.650Z,36.50
2018-07-10T20:23:58.281Z,36.80
2018-07-10T20:26:36.851Z,35.60
2018-07-10T20:29:12.059Z,36.10
2018-07-10T20:31:47.177Z,35.70
2018-07-10T20:34:24.596Z,35.50
2018-07-10T20:36:54.169Z,36.00
2018-07-10T20:39:31.958Z,36.10
2018-07-10T20:42:00.646Z,35.50
2018-07-10T20:44:29.169Z,35.90
2018-07-10T20:47:02.162Z,35.30
2018-07-10T20:49:47.511Z,35.60
2018-07-10T20:52:20.174Z,35.70
2018-07-10T20:54:54.855Z,36.10
2018-07-10T20:57:30.736Z,35.60
2018-07-10T21:00:14.640Z,35.40
2018-07-10T21:02:51.150Z,34.90
2018-07-10T21:05:29.047Z,35.20
2018-07-10T21:08:02.112Z,35.20
2018-07-10T21:10:34.880Z,35.30
2018-07-10T21:13:09.607Z,35.40
2018-07-10T21:17:54.167Z,35.30
2018-07-10T21:21:33.386Z,35.40
2018-07-10T21:24:07.670Z,35.10
2018-07-10T21:27:44.237Z,35.10
2018-07-10T21:30:25.072Z,34.00
2018-07-10T21:34:01.725Z,35.00
2018-07-10T21:36:44.333Z,34.80
2018-07-10T21:39:56.839Z,35.00
2018-07-10T21:42:37.204Z,34.60
2018-07-10T21:45:26.416Z,35.10
2018-07-10T21:48:03.511Z,34.80
2018-07-10T21:50:46.639Z,34.70
2018-07-10T21:53:15.151Z,35.60
2018-07-10T21:55:43.594Z,34.80
2018-07-10T22:02:54.613Z,34.40
2018-07-10T22:05:23.117Z,34.90
2018-07-10T22:10:19.778Z,35.00
2018-07-10T22:12:51.278Z,35.50
2018-07-10T22:15:19.906Z,34.60
2018-07-10T22:17:48.762Z,35.30
2018-07-10T22:20:17.078Z,34.90
2018-07-10T22:22:45.458Z,34.30
2018-07-10T22:25:13.807Z,34.30
2018-07-10T22:27:46.393Z,34.30
2018-07-10T22:30:21.106Z,33.80
2018-07-10T22:32:56.688Z,33.40
2018-07-10T22:35:25.118Z,32.80
2018-07-10T22:37:53.496Z,32.40
2018-07-10T22:40:21.786Z,32.70
2018-07-10T22:42:50.261Z,32.80
2018-07-10T22:45:19.158Z,32.60
2018-07-10T22:47:47.644Z,31.90
2018-07-10T22:50:18.939Z,31.90
2018-07-10T22:52:55.051Z,31.80
2018-07-10T22:55:29.084Z,32.30
2018-07-10T22:58:07.302Z,32.50
2018-07-10T23:00:38.302Z,32.60
2018-07-10T23:03:18.234Z,32.10
2018-07-10T23:05:47.730Z,32.30
2018-07-10T23:08:17.095Z,31.60
2018-07-10T23:10:46.284Z,31.70
2018-07-10T23:13:14.985Z,31.80
2018-07-10T23:15:43.327Z,31.80
2018-07-10T23:18:11.718Z,31.40
2018-07-10T23:20:40.055Z,31.50
2018-07-10T23:23:08.434Z,31.30
2018-07-10T23:25:36.709Z,31.50
2018-07-10T23:28:06.685Z,31.50
2018-07-10T23:30:40.055Z,31.50
2018-07-10T23:33:14.454Z,31.80
2018-07-10T23:35:44.380Z,32.40
2018-07-10T23:38:46.250Z,32.30
2018-07-10T23:41:27.241Z,35.00
2018-07-10T23:43:55.486Z,37.40
2018-07-10T23:46:29.141Z,39.20
2018-07-10T23:49:00.876Z,40.70
2018-07-10T23:51:29.310Z,41.80
2018-07-10T23:53:57.623Z,42.50
2018-07-10T23:56:25.905Z,43.40
2018-07-10T23:58:54.228Z,43.70
